createdAt,value
2019-03-06T00:00:38.793Z,5.47
2019-03-06T00:01:38.769Z,5.51
2019-03-06T00:02:38.787Z,5.50
2019-03-06T00:03:38.760Z,5.51
2019-03-06T00:04:38.741Z,5.48
2019-03-06T00:05:38.731Z,5.41
2019-03-06T00:06:38.741Z,5.43
2019-03-06T00:07:38.740Z,5.50
2019-03-06T00:08:38.721Z,5.43
2019-03-06T00:09:38.751Z,5.41
2019-03-06T00:10:38.672Z,5.47
2019-03-06T00:11:38.665Z,5.44
2019-03-06T00:12:38.654Z,5.48
2019-03-06T00:13:38.700Z,5.47
2019-03-06T00:14:38.609Z,5.39
2019-03-06T00:15:38.613Z,5.41
2019-03-06T00:16:38.614Z,5.47
2019-03-06T00:17:38.598Z,5.41
2019-03-06T00:18:38.627Z,5.43
2019-03-06T00:19:38.618Z,5.52
2019-03-06T00:20:38.568Z,5.55
2019-03-06T00:21:38.566Z,5.50
2019-03-06T00:22:38.560Z,5.58
2019-03-06T00:23:38.528Z,5.58
2019-03-06T00:24:38.570Z,5.54
2019-03-06T00:25:38.512Z,5.58
2019-03-06T00:26:38.554Z,5.55
2019-03-06T00:27:38.504Z,5.55
2019-03-06T00:28:38.483Z,5.55
2019-03-06T00:29:38.465Z,5.54
2019-03-06T00:30:38.455Z,5.61
2019-03-06T00:31:38.486Z,5.57
2019-03-06T00:32:38.444Z,5.58
2019-03-06T00:33:38.425Z,5.55
2019-03-06T00:34:38.409Z,5.65
2019-03-06T00:35:38.417Z,5.65
2019-03-06T00:36:38.409Z,5.65
2019-03-06T00:37:38.454Z,5.55
2019-03-06T00:38:38.390Z,5.70
2019-03-06T00:39:38.360Z,5.65
2019-03-06T00:40:38.353Z,5.69
2019-03-06T00:41:38.356Z,5.66
2019-03-06T00:42:38.340Z,5.66
2019-03-06T00:43:38.311Z,5.69
2019-03-06T00:44:38.306Z,5.70
2019-03-06T00:45:38.292Z,5.76
2019-03-06T00:46:38.290Z,5.72
2019-03-06T00:47:38.755Z,5.73
2019-03-06T00:48:38.313Z,5.69
2019-03-06T00:49:38.288Z,5.75
2019-03-06T00:50:38.247Z,5.75
2019-03-06T00:51:38.227Z,5.69
2019-03-06T00:52:38.220Z,5.82
2019-03-06T00:53:38.206Z,5.75
2019-03-06T00:54:38.208Z,5.75
2019-03-06T00:55:38.192Z,5.70
2019-03-06T00:56:38.179Z,5.76
2019-03-06T00:57:38.160Z,5.75
2019-03-06T00:58:38.165Z,5.73
2019-03-06T00:59:38.159Z,5.73
2019-03-06T01:00:38.194Z,5.79
2019-03-06T01:01:38.180Z,5.77
2019-03-06T01:02:38.120Z,5.72
2019-03-06T01:03:38.125Z,5.77
2019-03-06T01:04:38.132Z,5.77
2019-03-06T01:05:38.152Z,5.82
2019-03-06T01:06:38.160Z,5.75
2019-03-06T01:07:38.075Z,5.84
2019-03-06T01:08:38.038Z,5.82
2019-03-06T01:09:38.067Z,5.87
2019-03-06T01:10:38.049Z,5.77
2019-03-06T01:11:38.043Z,5.88
2019-03-06T01:12:38.018Z,5.85
2019-03-06T01:13:38.070Z,5.85
2019-03-06T01:14:37.971Z,5.85
2019-03-06T01:15:38.006Z,5.80
2019-03-06T01:16:38.016Z,5.82
2019-03-06T01:17:37.921Z,5.87
2019-03-06T01:18:37.977Z,5.80
2019-03-06T01:19:37.949Z,5.80
2019-03-06T01:20:37.951Z,5.94
2019-03-06T01:21:37.937Z,5.85
2019-03-06T01:22:37.999Z,5.90
2019-03-06T01:23:37.876Z,5.90
2019-03-06T01:24:37.865Z,5.95
2019-03-06T01:25:37.883Z,5.93
2019-03-06T01:26:37.882Z,5.94
2019-03-06T01:27:37.837Z,5.87
2019-03-06T01:28:37.818Z,5.98
2019-03-06T01:29:37.849Z,5.93
2019-03-06T01:30:37.783Z,5.88
2019-03-06T01:31:37.841Z,5.90
2019-03-06T01:32:38.739Z,5.95
2019-03-06T01:33:37.753Z,5.93
2019-03-06T01:34:37.785Z,5.95
2019-03-06T01:35:37.775Z,5.95
2019-03-06T01:36:37.770Z,5.90
2019-03-06T01:37:37.736Z,5.95
2019-03-06T01:38:37.742Z,5.91
2019-03-06T01:39:37.719Z,5.94
2019-03-06T01:40:37.695Z,5.94
2019-03-06T01:41:37.698Z,5.91
2019-03-06T01:42:37.681Z,5.97
2019-03-06T01:43:37.702Z,6.03
2019-03-06T01:44:37.639Z,5.91
2019-03-06T01:45:37.651Z,5.94
2019-03-06T01:46:37.659Z,6.09
2019-03-06T01:47:37.635Z,6.02
2019-03-06T01:48:37.706Z,6.02
2019-03-06T01:49:37.598Z,6.00
2019-03-06T01:50:37.615Z,6.06
2019-03-06T01:51:37.603Z,6.03
2019-03-06T01:52:37.574Z,6.02
2019-03-06T01:53:37.555Z,6.09
2019-03-06T01:54:37.544Z,6.11
2019-03-06T01:55:37.593Z,6.06
2019-03-06T01:56:37.524Z,6.05
2019-03-06T01:57:37.563Z,6.02
2019-03-06T01:58:37.522Z,6.08
2019-03-06T01:59:37.519Z,6.03
2019-03-06T02:00:37.478Z,6.15
2019-03-06T02:01:37.721Z,6.11
2019-03-06T02:02:37.470Z,6.11
2019-03-06T02:03:38.970Z,6.09
2019-03-06T02:04:37.447Z,6.15
2019-03-06T02:05:37.439Z,6.15
2019-03-06T02:06:37.428Z,6.19
2019-03-06T02:07:37.441Z,6.02
2019-03-06T02:08:37.406Z,6.12
2019-03-06T02:09:37.413Z,6.13
2019-03-06T02:10:37.404Z,6.05
2019-03-06T02:11:37.365Z,6.21
2019-03-06T02:12:37.386Z,6.15
2019-03-06T02:13:37.343Z,6.12
2019-03-06T02:14:37.366Z,6.18
2019-03-06T02:15:37.318Z,6.12
2019-03-06T02:16:37.361Z,6.06
2019-03-06T02:17:37.302Z,6.19
2019-03-06T02:18:37.332Z,6.16
2019-03-06T02:19:37.278Z,6.15
2019-03-06T02:20:37.320Z,6.19
2019-03-06T02:21:37.262Z,6.19
2019-03-06T02:22:37.270Z,6.11
2019-03-06T02:23:37.264Z,6.12
2019-03-06T02:24:37.228Z,6.12
2019-03-06T02:25:37.244Z,6.13
2019-03-06T02:26:37.228Z,6.18
2019-03-06T02:27:37.192Z,6.09
2019-03-06T02:28:37.214Z,6.27
2019-03-06T02:29:37.144Z,6.12
2019-03-06T02:30:37.165Z,6.27
2019-03-06T02:31:37.167Z,6.21
2019-03-06T02:32:37.169Z,6.19
2019-03-06T02:33:37.160Z,6.13
2019-03-06T02:34:37.097Z,6.11
2019-03-06T02:35:37.109Z,6.16
2019-03-06T02:36:37.098Z,6.11
2019-03-06T02:37:37.114Z,6.13
2019-03-06T02:38:37.126Z,6.24
2019-03-06T02:39:37.070Z,6.21
2019-03-06T02:40:37.083Z,6.15
2019-03-06T02:41:37.072Z,6.11
2019-03-06T02:42:37.059Z,6.16
2019-03-06T02:43:37.117Z,6.11
2019-03-06T02:44:39.876Z,6.13
2019-03-06T02:45:37.040Z,6.09
2019-03-06T02:46:37.061Z,6.12
2019-03-06T02:47:36.964Z,6.09
2019-03-06T02:48:37.103Z,6.12
2019-03-06T02:49:36.981Z,6.16
2019-03-06T02:50:36.970Z,6.21
2019-03-06T02:51:36.914Z,6.12
2019-03-06T02:52:36.972Z,6.19
2019-03-06T02:53:36.932Z,6.19
2019-03-06T02:54:36.933Z,6.28
2019-03-06T02:55:36.941Z,6.15
2019-03-06T02:56:36.949Z,6.25
2019-03-06T02:57:36.896Z,6.19
2019-03-06T02:58:36.852Z,6.09
2019-03-06T02:59:36.846Z,6.09
2019-03-06T03:00:36.883Z,6.13
2019-03-06T03:01:36.858Z,6.13
2019-03-06T03:02:36.878Z,6.18
2019-03-06T03:03:36.825Z,6.16
2019-03-06T03:04:36.809Z,6.11
2019-03-06T03:05:36.769Z,6.15
2019-03-06T03:06:36.769Z,6.15
2019-03-06T03:07:36.772Z,6.13
2019-03-06T03:08:36.774Z,6.12
2019-03-06T03:09:36.763Z,6.16
2019-03-06T03:10:36.725Z,6.18
2019-03-06T03:11:36.729Z,6.15
2019-03-06T03:12:36.701Z,6.12
2019-03-06T03:13:36.702Z,6.16
2019-03-06T03:14:36.681Z,6.12
2019-03-06T03:15:36.709Z,6.25
2019-03-06T03:16:37.226Z,6.27
2019-03-06T03:17:36.666Z,6.19
2019-03-06T03:18:36.655Z,6.27
2019-03-06T03:19:36.647Z,6.19
2019-03-06T03:20:36.681Z,6.15
2019-03-06T03:21:36.677Z,6.13
2019-03-06T03:22:36.599Z,6.09
2019-03-06T03:23:36.580Z,6.19
2019-03-06T03:24:36.567Z,6.19
2019-03-06T03:25:36.617Z,6.19
2019-03-06T03:26:36.552Z,6.13
2019-03-06T03:27:36.554Z,6.25
2019-03-06T03:28:36.551Z,6.15
2019-03-06T03:29:36.524Z,6.25
2019-03-06T03:31:57.151Z,6.12
2019-03-06T03:32:57.077Z,6.21
2019-03-06T03:33:57.152Z,6.16
2019-03-06T03:34:57.083Z,6.19
2019-03-06T03:35:57.139Z,6.16
2019-03-06T03:36:57.040Z,6.16
2019-03-06T03:37:57.018Z,6.13
2019-03-06T03:38:57.008Z,6.18
2019-03-06T03:39:57.003Z,6.15
2019-03-06T03:40:57.022Z,6.21
2019-03-06T03:41:56.980Z,6.12
2019-03-06T03:42:56.958Z,6.11
2019-03-06T03:43:56.960Z,6.18
2019-03-06T03:44:56.998Z,6.15
2019-03-06T03:45:56.977Z,6.15
2019-03-06T03:46:56.935Z,6.13
2019-03-06T03:47:56.928Z,6.13
2019-03-06T03:48:56.894Z,6.15
2019-03-06T03:49:56.914Z,6.18
2019-03-06T03:50:56.875Z,6.13
2019-03-06T03:51:56.917Z,6.18
2019-03-06T03:52:56.845Z,6.16
2019-03-06T03:53:56.848Z,6.12
2019-03-06T03:54:56.835Z,6.15
2019-03-06T03:55:56.828Z,6.21
2019-03-06T03:56:56.851Z,6.13
2019-03-06T03:57:56.818Z,6.21
2019-03-06T03:58:56.815Z,6.12
2019-03-06T03:59:56.782Z,6.16
2019-03-06T04:00:56.831Z,6.24
2019-03-06T04:01:56.799Z,6.15
2019-03-06T04:02:56.771Z,6.12
2019-03-06T04:03:56.795Z,6.16
2019-03-06T04:04:56.769Z,6.12
2019-03-06T04:05:56.741Z,6.13
2019-03-06T04:06:56.753Z,6.15
2019-03-06T04:07:56.731Z,6.12
2019-03-06T04:08:56.695Z,6.12
2019-03-06T04:09:56.688Z,6.16
2019-03-06T04:10:56.690Z,6.18
2019-03-06T04:11:56.716Z,6.16
2019-03-06T04:12:56.677Z,6.18
2019-03-06T04:13:56.643Z,6.15
2019-03-06T04:14:56.624Z,6.24
2019-03-06T04:15:56.610Z,6.12
2019-03-06T04:16:56.642Z,6.12
2019-03-06T04:17:56.596Z,6.16
2019-03-06T04:18:56.584Z,6.28
2019-03-06T04:19:56.575Z,6.15
2019-03-06T04:20:56.606Z,6.12
2019-03-06T04:21:56.621Z,6.13
2019-03-06T04:22:56.557Z,6.13
2019-03-06T04:23:56.591Z,6.13
2019-03-06T04:24:56.518Z,6.24
2019-03-06T04:25:56.508Z,6.28
2019-03-06T04:26:56.496Z,6.19
2019-03-06T04:27:56.531Z,6.18
2019-03-06T04:28:56.529Z,6.31
2019-03-06T04:29:56.461Z,6.15
2019-03-06T04:30:56.432Z,6.15
2019-03-06T04:31:56.489Z,6.25
2019-03-06T04:32:56.460Z,6.15
2019-03-06T04:33:56.445Z,6.28
2019-03-06T04:34:56.415Z,6.24
2019-03-06T04:35:56.413Z,6.27
2019-03-06T04:36:56.426Z,6.19
2019-03-06T04:37:56.450Z,6.28
2019-03-06T04:38:56.370Z,6.19
2019-03-06T04:39:56.385Z,6.25
2019-03-06T04:40:56.395Z,6.28
2019-03-06T04:41:56.386Z,6.25
2019-03-06T04:42:56.410Z,6.24
2019-03-06T04:43:56.364Z,6.28
2019-03-06T04:44:56.348Z,6.25
2019-03-06T04:45:56.307Z,6.30
2019-03-06T04:46:56.298Z,6.19
2019-03-06T04:47:56.297Z,6.24
2019-03-06T04:48:56.240Z,6.28
2019-03-06T04:49:56.271Z,6.19
2019-03-06T04:50:56.322Z,6.19
2019-03-06T04:51:56.252Z,6.28
2019-03-06T04:52:56.281Z,6.27
2019-03-06T04:53:56.209Z,6.27
2019-03-06T04:54:56.185Z,6.24
2019-03-06T04:55:56.217Z,6.30
2019-03-06T04:56:56.170Z,6.27
2019-03-06T04:57:56.165Z,6.31
2019-03-06T04:58:56.186Z,6.27
2019-03-06T04:59:56.138Z,6.31
2019-03-06T05:00:56.127Z,6.30
2019-03-06T05:01:56.178Z,6.28
2019-03-06T05:02:56.110Z,6.27
2019-03-06T05:03:56.121Z,6.35
2019-03-06T05:04:56.082Z,6.38
2019-03-06T05:05:56.070Z,6.40
2019-03-06T05:06:56.098Z,6.31
2019-03-06T05:07:56.048Z,6.31
2019-03-06T05:08:56.097Z,6.32
2019-03-06T05:09:56.024Z,6.31
2019-03-06T05:10:56.079Z,6.32
2019-03-06T05:11:55.988Z,6.32
2019-03-06T05:12:56.030Z,6.34
2019-03-06T05:13:56.015Z,6.31
2019-03-06T05:14:55.997Z,6.28
2019-03-06T05:15:56.067Z,6.28
2019-03-06T05:16:55.978Z,6.34
2019-03-06T05:17:55.978Z,6.31
2019-03-06T05:18:55.937Z,6.35
2019-03-06T05:19:55.920Z,6.32
2019-03-06T05:20:55.911Z,6.37
2019-03-06T05:21:55.896Z,6.40
2019-03-06T05:22:55.892Z,6.38
2019-03-06T05:23:55.919Z,6.37
2019-03-06T05:24:55.872Z,6.42
2019-03-06T05:25:55.865Z,6.35
2019-03-06T05:26:55.874Z,6.40
2019-03-06T05:27:55.899Z,6.34
2019-03-06T05:28:55.853Z,6.42
2019-03-06T05:29:55.856Z,6.38
2019-03-06T05:30:55.801Z,6.43
2019-03-06T05:31:55.826Z,6.34
2019-03-06T05:32:55.786Z,6.42
2019-03-06T05:33:55.798Z,6.42
2019-03-06T05:34:55.826Z,6.45
2019-03-06T05:35:55.752Z,6.38
2019-03-06T05:36:55.768Z,6.46
2019-03-06T05:37:55.756Z,6.49
2019-03-06T05:38:55.751Z,6.42
2019-03-06T05:39:55.774Z,6.42
2019-03-06T05:40:55.731Z,6.43
2019-03-06T05:41:55.704Z,6.42
2019-03-06T05:42:55.703Z,6.34
2019-03-06T05:43:55.707Z,6.43
2019-03-06T05:44:55.654Z,6.45
2019-03-06T05:45:55.676Z,6.43
2019-03-06T05:46:55.634Z,6.46
2019-03-06T05:47:55.698Z,6.42
2019-03-06T05:48:55.646Z,6.38
2019-03-06T05:49:55.636Z,6.42
2019-03-06T05:50:55.617Z,6.42
2019-03-06T05:51:55.576Z,6.37
2019-03-06T05:52:55.606Z,6.43
2019-03-06T05:53:55.591Z,6.46
2019-03-06T05:54:55.538Z,6.46
2019-03-06T05:55:55.541Z,6.47
2019-03-06T05:56:55.532Z,6.35
2019-03-06T05:57:55.546Z,6.47
2019-03-06T05:58:55.606Z,6.40
2019-03-06T05:59:55.505Z,6.55
2019-03-06T06:00:55.553Z,6.43
2019-03-06T06:01:55.505Z,6.47
2019-03-06T06:02:55.465Z,6.43
2019-03-06T06:03:55.476Z,6.43
2019-03-06T06:04:55.466Z,6.46
2019-03-06T06:05:55.442Z,6.47
2019-03-06T06:06:55.451Z,6.40
2019-03-06T06:07:55.452Z,6.38
2019-03-06T06:08:55.427Z,6.45
2019-03-06T06:09:55.422Z,6.45
2019-03-06T06:10:55.653Z,6.46
2019-03-06T06:11:55.391Z,6.38
2019-03-06T06:12:55.369Z,6.43
2019-03-06T06:13:55.361Z,6.45
2019-03-06T06:14:55.366Z,6.45
2019-03-06T06:15:55.322Z,6.55
2019-03-06T06:16:55.672Z,6.53
2019-03-06T06:17:55.390Z,6.52
2019-03-06T06:18:55.284Z,6.43
2019-03-06T06:19:55.313Z,6.53
2019-03-06T06:20:55.314Z,6.47
2019-03-06T06:21:55.242Z,6.53
2019-03-06T06:22:55.275Z,6.56
2019-03-06T06:23:55.345Z,6.60
2019-03-06T06:24:55.349Z,6.55
2019-03-06T06:25:55.266Z,6.56
2019-03-06T06:26:55.217Z,6.56
2019-03-06T06:27:55.211Z,6.60
2019-03-06T06:28:55.182Z,6.60
2019-03-06T06:29:55.289Z,6.55
2019-03-06T06:30:55.192Z,6.55
2019-03-06T06:31:55.192Z,6.57
2019-03-06T06:32:55.153Z,6.67
2019-03-06T06:33:55.133Z,6.65
2019-03-06T06:34:55.195Z,6.68
2019-03-06T06:35:55.106Z,6.61
2019-03-06T06:36:55.127Z,6.63
2019-03-06T06:37:55.086Z,6.64
2019-03-06T06:38:55.075Z,6.67
2019-03-06T06:39:55.067Z,6.70
2019-03-06T06:40:55.090Z,6.68
2019-03-06T06:41:55.040Z,6.71
2019-03-06T06:42:55.039Z,6.70
2019-03-06T06:43:55.020Z,6.67
2019-03-06T06:44:55.013Z,6.68
2019-03-06T06:45:54.991Z,6.75
2019-03-06T06:46:55.016Z,6.73
2019-03-06T06:47:54.966Z,6.73
2019-03-06T06:48:54.962Z,6.61
2019-03-06T06:49:54.933Z,6.61
2019-03-06T06:51:01.748Z,6.73
2019-03-06T06:51:55.994Z,6.67
2019-03-06T06:52:54.928Z,6.74
2019-03-06T06:53:54.914Z,6.78
2019-03-06T06:54:54.894Z,6.78
2019-03-06T06:55:54.874Z,6.75
2019-03-06T06:56:54.879Z,6.86
2019-03-06T06:57:54.897Z,6.74
2019-03-06T06:58:54.869Z,6.75
2019-03-06T06:59:54.839Z,6.79
2019-03-06T07:00:54.829Z,6.86
2019-03-06T07:01:54.820Z,6.85
2019-03-06T07:02:54.845Z,6.82
2019-03-06T07:03:54.782Z,6.86
2019-03-06T07:04:54.781Z,6.85
2019-03-06T07:05:54.771Z,6.92
2019-03-06T07:06:54.748Z,6.88
2019-03-06T07:07:54.803Z,6.86
2019-03-06T07:08:54.744Z,6.85
2019-03-06T07:09:54.753Z,6.96
2019-03-06T07:10:54.737Z,6.89
2019-03-06T07:11:54.705Z,7.03
2019-03-06T07:12:54.696Z,6.92
2019-03-06T07:13:54.761Z,6.97
2019-03-06T07:14:54.676Z,7.01
2019-03-06T07:15:54.655Z,7.00
2019-03-06T07:16:54.634Z,7.03
2019-03-06T07:17:54.699Z,7.06
2019-03-06T07:18:54.613Z,7.04
2019-03-06T07:19:54.671Z,7.04
2019-03-06T07:20:54.599Z,7.06
2019-03-06T07:21:54.602Z,7.03
2019-03-06T07:22:54.566Z,7.03
2019-03-06T07:23:54.605Z,7.10
2019-03-06T07:24:54.544Z,7.18
2019-03-06T07:25:54.551Z,7.15
2019-03-06T07:26:54.536Z,7.25
2019-03-06T07:27:54.562Z,7.19
2019-03-06T07:28:54.545Z,7.19
2019-03-06T07:29:54.526Z,7.19
2019-03-06T07:30:54.516Z,7.18
2019-03-06T07:31:54.478Z,7.29
2019-03-06T07:32:54.498Z,7.29
2019-03-06T07:33:54.555Z,7.25
2019-03-06T07:34:54.451Z,7.25
2019-03-06T07:35:54.438Z,7.33
2019-03-06T07:36:54.432Z,7.29
2019-03-06T07:37:54.413Z,7.29
2019-03-06T07:38:54.477Z,7.28
2019-03-06T07:39:54.391Z,7.34
2019-03-06T07:40:54.384Z,7.39
2019-03-06T07:41:54.414Z,7.40
2019-03-06T07:42:54.372Z,7.52
2019-03-06T07:43:54.350Z,7.49
2019-03-06T07:44:54.336Z,7.50
2019-03-06T07:45:54.356Z,7.50
2019-03-06T07:46:54.353Z,7.46
2019-03-06T07:47:54.308Z,7.44
2019-03-06T07:48:54.276Z,7.49
2019-03-06T07:49:54.310Z,7.46
2019-03-06T07:50:54.266Z,7.55
2019-03-06T07:51:54.259Z,7.49
2019-03-06T07:52:54.259Z,7.46
2019-03-06T07:53:54.241Z,7.57
2019-03-06T07:54:54.278Z,7.55
2019-03-06T07:55:54.233Z,7.58
2019-03-06T07:56:54.266Z,7.54
2019-03-06T07:57:54.214Z,7.60
2019-03-06T07:58:54.183Z,7.66
2019-03-06T07:59:54.217Z,7.66
2019-03-06T08:00:54.174Z,7.62
2019-03-06T08:01:54.187Z,7.71
2019-03-06T08:02:54.136Z,7.61
2019-03-06T08:03:54.115Z,7.62
2019-03-06T08:04:54.119Z,7.61
2019-03-06T08:05:54.160Z,7.76
2019-03-06T08:06:54.118Z,7.68
2019-03-06T08:07:54.155Z,7.76
2019-03-06T08:08:54.115Z,7.76
2019-03-06T08:09:54.109Z,7.64
2019-03-06T08:10:54.102Z,7.77
2019-03-06T08:11:54.093Z,7.71
2019-03-06T08:12:54.072Z,7.73
2019-03-06T08:13:54.023Z,7.81
2019-03-06T08:14:54.023Z,7.73
2019-03-06T08:15:54.322Z,7.81
2019-03-06T08:16:54.015Z,7.84
2019-03-06T08:17:53.972Z,7.83
2019-03-06T08:18:55.943Z,7.84
2019-03-06T08:19:53.946Z,7.83
2019-03-06T08:20:53.925Z,7.87
2019-03-06T08:21:53.959Z,7.87
2019-03-06T08:22:53.937Z,7.88
2019-03-06T08:23:53.919Z,7.86
2019-03-06T08:24:53.892Z,7.94
2019-03-06T08:25:53.929Z,7.99
2019-03-06T08:26:53.899Z,7.98
2019-03-06T08:27:53.862Z,7.98
2019-03-06T08:28:53.852Z,8.02
2019-03-06T08:29:53.858Z,8.04
2019-03-06T08:30:53.888Z,8.10
2019-03-06T08:31:53.854Z,8.09
2019-03-06T08:32:53.838Z,8.20
2019-03-06T08:33:53.817Z,8.13
2019-03-06T08:34:53.807Z,8.16
2019-03-06T08:35:53.782Z,8.19
2019-03-06T08:36:53.766Z,8.19
2019-03-06T08:37:53.763Z,8.24
2019-03-06T08:38:53.746Z,8.24
2019-03-06T08:39:53.706Z,8.26
2019-03-06T08:40:53.690Z,8.26
2019-03-06T08:41:53.741Z,8.31
2019-03-06T08:42:53.712Z,8.31
2019-03-06T08:43:53.693Z,8.31
2019-03-06T08:44:53.692Z,8.35
2019-03-06T08:45:53.688Z,8.42
2019-03-06T08:46:53.666Z,8.39
2019-03-06T08:47:53.653Z,8.37
2019-03-06T08:48:53.644Z,8.39
2019-03-06T08:49:55.223Z,8.44
2019-03-06T08:50:53.660Z,8.34
2019-03-06T08:51:53.616Z,8.42
2019-03-06T08:52:53.577Z,8.49
2019-03-06T08:53:53.576Z,8.44
2019-03-06T08:54:53.603Z,8.52
2019-03-06T08:55:53.557Z,8.41
2019-03-06T08:56:53.592Z,8.41
2019-03-06T08:57:53.523Z,8.47
2019-03-06T08:58:53.540Z,8.42
2019-03-06T08:59:53.521Z,8.57
2019-03-06T09:00:53.515Z,8.56
2019-03-06T09:02:00.440Z,8.50
2019-03-06T09:02:54.531Z,8.52
2019-03-06T09:03:53.474Z,8.50
2019-03-06T09:04:53.449Z,8.59
2019-03-06T09:05:53.433Z,8.60
2019-03-06T09:06:53.470Z,8.59
2019-03-06T09:07:53.519Z,8.71
2019-03-06T09:08:53.406Z,8.68
2019-03-06T09:09:53.388Z,8.74
2019-03-06T09:11:02.282Z,8.77
2019-03-06T09:11:54.374Z,8.81
2019-03-06T09:12:53.378Z,8.81
2019-03-06T09:13:53.422Z,8.81
2019-03-06T09:14:53.350Z,8.83
2019-03-06T09:15:53.326Z,8.86
2019-03-06T09:16:53.338Z,8.90
2019-03-06T09:17:53.323Z,8.92
2019-03-06T09:18:53.312Z,8.93
2019-03-06T09:19:53.313Z,8.92
2019-03-06T09:20:53.291Z,8.95
2019-03-06T09:21:53.287Z,8.93
2019-03-06T09:22:53.262Z,8.92
2019-03-06T09:23:53.225Z,8.95
2019-03-06T09:24:53.228Z,9.06
2019-03-06T09:25:53.231Z,9.06
2019-03-06T09:26:53.194Z,9.06
2019-03-06T09:27:53.225Z,9.12
2019-03-06T09:29:00.701Z,9.11
2019-03-06T09:29:54.158Z,9.14
2019-03-06T09:30:53.156Z,9.03
2019-03-06T09:31:53.168Z,9.12
2019-03-06T09:32:53.176Z,9.19
2019-03-06T09:33:53.139Z,9.14
2019-03-06T09:34:53.132Z,9.23
2019-03-06T09:35:53.116Z,9.14
2019-03-06T09:36:53.071Z,9.27
2019-03-06T09:37:53.062Z,9.18
2019-03-06T09:38:53.085Z,9.19
2019-03-06T09:39:53.097Z,9.34
2019-03-06T09:40:53.021Z,9.33
2019-03-06T09:41:53.014Z,9.30
2019-03-06T09:42:53.011Z,9.33
2019-03-06T09:43:53.021Z,9.42
2019-03-06T09:44:52.982Z,9.41
2019-03-06T09:45:52.989Z,9.45
2019-03-06T09:46:52.979Z,9.47
2019-03-06T09:47:53.000Z,9.51
2019-03-06T09:48:52.982Z,9.52
2019-03-06T09:49:52.952Z,9.59
2019-03-06T09:50:52.963Z,9.67
2019-03-06T09:51:52.953Z,9.67
2019-03-06T09:52:52.974Z,9.67
2019-03-06T09:53:52.983Z,9.70
2019-03-06T09:54:54.975Z,9.80
2019-03-06T09:55:52.871Z,9.72
2019-03-06T09:56:52.865Z,9.85
2019-03-06T09:57:52.866Z,9.81
2019-03-06T09:58:52.913Z,9.85
2019-03-06T09:59:52.866Z,9.88
2019-03-06T10:00:52.815Z,9.91
2019-03-06T10:01:52.801Z,9.94
2019-03-06T10:02:52.830Z,9.94
2019-03-06T10:03:52.790Z,9.99
2019-03-06T10:04:52.828Z,10.01
2019-03-06T10:05:52.779Z,10.12
2019-03-06T10:06:52.767Z,10.06
2019-03-06T10:07:52.742Z,10.08
2019-03-06T10:08:52.779Z,10.18
2019-03-06T10:09:59.025Z,10.26
2019-03-06T10:10:57.525Z,10.30
2019-03-06T10:11:52.717Z,10.39
2019-03-06T10:12:52.725Z,10.42
2019-03-06T10:13:52.731Z,10.45
2019-03-06T10:14:52.724Z,10.48
2019-03-06T10:15:52.667Z,10.57
2019-03-06T10:16:52.675Z,10.57
2019-03-06T10:17:52.656Z,10.58
2019-03-06T10:18:52.628Z,10.64
2019-03-06T10:19:52.650Z,10.68
2019-03-06T10:20:52.657Z,10.76
2019-03-06T10:21:52.589Z,10.72
2019-03-06T10:22:54.851Z,10.80
2019-03-06T10:23:53.629Z,10.73
2019-03-06T10:24:52.561Z,10.78
2019-03-06T10:25:52.560Z,10.80
2019-03-06T10:26:52.593Z,10.93
2019-03-06T10:27:52.510Z,11.00
2019-03-06T10:28:52.517Z,11.03
2019-03-06T10:29:52.506Z,11.09
2019-03-06T10:31:01.865Z,11.16
2019-03-06T10:31:53.503Z,11.16
2019-03-06T10:32:52.512Z,11.16
2019-03-06T10:33:52.533Z,11.23
2019-03-06T10:34:52.447Z,11.38
2019-03-06T10:35:52.472Z,11.38
2019-03-06T10:36:52.427Z,11.37
2019-03-06T10:37:52.416Z,11.51
2019-03-06T10:38:52.409Z,11.59
2019-03-06T10:39:52.439Z,11.52
2019-03-06T10:40:52.422Z,11.61
2019-03-06T10:41:52.373Z,11.56
2019-03-06T10:42:52.371Z,11.64
2019-03-06T10:43:52.351Z,11.66
2019-03-06T10:44:52.343Z,11.71
2019-03-06T10:45:52.365Z,11.71
2019-03-06T10:46:52.328Z,11.77
2019-03-06T10:47:52.325Z,11.77
2019-03-06T10:48:52.324Z,11.74
2019-03-06T10:49:52.273Z,11.82
2019-03-06T10:50:52.310Z,11.76
2019-03-06T10:51:52.292Z,11.80
2019-03-06T10:52:52.275Z,11.79
2019-03-06T10:53:52.262Z,11.73
2019-03-06T10:54:52.240Z,11.74
2019-03-06T10:55:52.320Z,11.71
2019-03-06T10:56:52.200Z,11.69
2019-03-06T10:57:52.191Z,11.73
2019-03-06T10:58:52.197Z,11.71
2019-03-06T10:59:52.185Z,11.73
2019-03-06T11:00:52.174Z,11.87
2019-03-06T11:01:52.204Z,11.71
2019-03-06T11:02:52.123Z,11.74
2019-03-06T11:03:52.114Z,11.77
2019-03-06T11:04:52.127Z,11.77
2019-03-06T11:05:52.113Z,11.73
2019-03-06T11:06:52.140Z,11.70
2019-03-06T11:07:52.087Z,11.74
2019-03-06T11:08:52.108Z,11.88
2019-03-06T11:09:52.047Z,11.91
2019-03-06T11:10:52.079Z,11.97
2019-03-06T11:11:52.080Z,12.05
2019-03-06T11:12:52.034Z,12.07
2019-03-06T11:13:52.025Z,11.99
2019-03-06T11:14:52.013Z,12.14
2019-03-06T11:15:55.623Z,12.13
2019-03-06T11:16:51.982Z,12.22
2019-03-06T11:17:52.025Z,12.17
2019-03-06T11:18:51.972Z,12.17
2019-03-06T11:19:51.964Z,12.15
2019-03-06T11:20:51.986Z,12.28
2019-03-06T11:21:51.961Z,12.30
2019-03-06T11:22:51.973Z,12.32
2019-03-06T11:23:51.920Z,12.33
2019-03-06T11:24:51.909Z,12.43
2019-03-06T11:25:51.901Z,12.46
2019-03-06T11:26:51.880Z,12.46
2019-03-06T11:27:51.890Z,12.43
2019-03-06T11:28:51.863Z,12.53
2019-03-06T11:29:51.850Z,12.48
2019-03-06T11:30:51.846Z,12.59
2019-03-06T11:31:51.842Z,12.58
2019-03-06T11:32:54.494Z,12.63
2019-03-06T11:33:51.851Z,12.71
2019-03-06T11:34:51.812Z,12.66
2019-03-06T11:35:51.833Z,12.66
2019-03-06T11:36:51.758Z,12.65
2019-03-06T11:37:51.872Z,12.66
2019-03-06T11:38:51.745Z,12.69
2019-03-06T11:39:51.779Z,12.65
2019-03-06T11:40:51.763Z,12.68
2019-03-06T11:41:51.776Z,12.66
2019-03-06T11:42:51.732Z,12.68
2019-03-06T11:43:51.769Z,12.69
2019-03-06T11:44:51.744Z,12.83
2019-03-06T11:45:51.673Z,12.80
2019-03-06T11:46:53.074Z,12.79
2019-03-06T11:47:51.655Z,12.86
2019-03-06T11:48:51.675Z,12.84
2019-03-06T11:49:51.663Z,12.90
2019-03-06T11:50:51.639Z,12.93
2019-03-06T11:51:51.635Z,12.96
2019-03-06T11:52:51.659Z,12.95
2019-03-06T11:53:51.666Z,12.91
2019-03-06T11:54:51.626Z,12.96
2019-03-06T11:55:51.578Z,13.01
2019-03-06T11:56:51.569Z,12.98
2019-03-06T11:57:51.652Z,12.99
2019-03-06T11:58:51.545Z,13.05
2019-03-06T11:59:51.548Z,13.11
2019-03-06T12:00:51.510Z,13.20
2019-03-06T12:01:51.540Z,13.09
2019-03-06T12:02:51.523Z,13.14
2019-03-06T12:03:51.580Z,13.11
2019-03-06T12:04:51.504Z,13.14
2019-03-06T12:05:51.493Z,13.09
2019-03-06T12:06:51.461Z,13.11
2019-03-06T12:07:51.463Z,13.06
2019-03-06T12:08:51.476Z,13.14
2019-03-06T12:09:51.400Z,13.19
2019-03-06T12:10:51.469Z,13.11
2019-03-06T12:11:51.423Z,13.19
2019-03-06T12:12:51.394Z,13.16
2019-03-06T12:13:51.385Z,13.16
2019-03-06T12:14:51.398Z,13.23
2019-03-06T12:15:51.368Z,13.26
2019-03-06T12:16:51.362Z,13.23
2019-03-06T12:17:51.345Z,13.29
2019-03-06T12:18:51.401Z,13.24
2019-03-06T12:19:51.329Z,13.20
2019-03-06T12:20:51.302Z,13.32
2019-03-06T12:21:51.283Z,13.27
2019-03-06T12:22:51.289Z,13.20
2019-03-06T12:23:51.310Z,13.30
2019-03-06T12:24:51.252Z,13.26
2019-03-06T12:25:51.244Z,13.32
2019-03-06T12:26:51.248Z,13.36
2019-03-06T12:27:51.236Z,13.36
2019-03-06T12:28:51.262Z,13.35
2019-03-06T12:29:51.197Z,13.40
2019-03-06T12:30:51.193Z,13.45
2019-03-06T12:31:51.178Z,13.47
2019-03-06T12:32:51.165Z,13.49
2019-03-06T12:33:51.190Z,13.45
2019-03-06T12:34:51.189Z,13.45
2019-03-06T12:35:51.129Z,13.53
2019-03-06T12:36:51.122Z,13.49
2019-03-06T12:37:51.109Z,13.47
2019-03-06T12:38:51.089Z,13.53
2019-03-06T12:39:51.133Z,13.54
2019-03-06T12:40:51.081Z,13.58
2019-03-06T12:41:51.068Z,13.49
2019-03-06T12:42:51.053Z,13.61
2019-03-06T12:43:51.051Z,13.65
2019-03-06T12:44:51.056Z,13.61
2019-03-06T12:45:51.097Z,13.63
2019-03-06T12:46:51.007Z,13.57
2019-03-06T12:47:55.367Z,13.63
2019-03-06T12:48:51.968Z,13.64
2019-03-06T12:49:50.966Z,13.64
2019-03-06T12:50:55.968Z,13.63
2019-03-06T12:51:54.626Z,13.58
2019-03-06T12:52:50.941Z,13.61
2019-03-06T12:53:50.913Z,13.61
2019-03-06T12:54:50.901Z,13.67
2019-03-06T12:55:50.892Z,13.63
2019-03-06T12:56:50.921Z,13.67
2019-03-06T12:57:59.125Z,13.71
2019-03-06T12:58:51.906Z,13.80
2019-03-06T12:59:50.855Z,13.67
2019-03-06T13:00:50.844Z,13.76
2019-03-06T13:01:50.835Z,13.71
2019-03-06T13:02:50.908Z,13.76
2019-03-06T13:03:50.817Z,13.78
2019-03-06T13:04:50.809Z,13.80
2019-03-06T13:05:50.788Z,13.73
2019-03-06T13:06:50.799Z,13.82
2019-03-06T13:07:50.773Z,13.75
2019-03-06T13:08:51.004Z,13.78
2019-03-06T13:09:50.733Z,13.79
2019-03-06T13:10:50.772Z,13.75
2019-03-06T13:11:50.740Z,13.78
2019-03-06T13:12:50.733Z,13.75
2019-03-06T13:13:50.731Z,13.76